createdAt,value
2023-02-19T00:11:22.694Z,9.79
2023-02-19T00:23:23.121Z,9.09
2023-02-19T00:35:23.565Z,9.13
2023-02-19T00:47:24.046Z,8.91
2023-02-19T00:59:24.512Z,8.57
2023-02-19T01:11:24.977Z,7.16
2023-02-19T01:23:25.409Z,7.40
2023-02-19T01:35:25.871Z,7.55
2023-02-19T01:47:26.324Z,7.14
2023-02-19T01:59:26.765Z,7.44
2023-02-19T02:11:27.234Z,7.61
2023-02-19T02:23:27.687Z,7.52
2023-02-19T02:35:28.150Z,7.26
2023-02-19T02:47:28.603Z,7.30
2023-02-19T02:59:29.069Z,7.00
2023-02-19T03:11:29.524Z,6.65
2023-02-19T03:23:29.974Z,6.61
2023-02-19T03:35:30.397Z,6.60
2023-02-19T03:47:30.860Z,6.73
2023-02-19T03:59:31.298Z,6.50
2023-02-19T04:11:31.760Z,5.96
2023-02-19T04:23:32.210Z,5.96
2023-02-19T04:35:32.693Z,5.85
2023-02-19T04:47:33.098Z,5.69
2023-02-19T04:59:33.511Z,6.01
2023-02-19T05:11:34.062Z,5.92
2023-02-19T05:23:34.497Z,6.01
2023-02-19T05:35:34.916Z,5.93
2023-02-19T05:47:35.344Z,5.49
2023-02-19T05:59:35.824Z,5.76
2023-02-19T06:11:36.297Z,6.19
2023-02-19T06:23:36.741Z,5.29
2023-02-19T06:35:37.160Z,5.47
2023-02-19T06:47:37.633Z,5.73
2023-02-19T06:59:38.107Z,5.85
2023-02-19T07:11:38.535Z,6.24
2023-02-19T07:23:39.116Z,6.59
2023-02-19T07:35:39.450Z,7.17
2023-02-19T07:47:39.932Z,7.18
2023-02-19T07:59:40.364Z,7.68
2023-02-19T08:11:40.816Z,8.31
2023-02-19T08:23:41.236Z,8.56
2023-02-19T08:35:41.737Z,8.72
2023-02-19T08:47:42.122Z,8.99
2023-02-19T08:59:42.617Z,10.69
2023-02-19T09:11:43.037Z,11.82
2023-02-19T09:23:43.554Z,11.81
2023-02-19T09:35:43.958Z,13.59
2023-02-19T09:47:44.405Z,14.18
2023-02-19T09:59:44.903Z,14.10
2023-02-19T10:11:45.339Z,14.55
2023-02-19T10:23:45.800Z,14.57
2023-02-19T10:35:46.297Z,14.65
2023-02-19T10:47:46.675Z,14.78
2023-02-19T10:59:47.151Z,15.67
2023-02-19T11:11:47.594Z,16.43
2023-02-19T11:23:48.052Z,15.78
2023-02-19T11:35:48.503Z,15.54
2023-02-19T11:47:49.002Z,14.42
2023-02-19T11:59:49.423Z,14.50
2023-02-19T12:11:49.881Z,14.44
2023-02-19T12:23:50.320Z,14.78
2023-02-19T12:35:50.765Z,14.74
2023-02-19T12:47:51.226Z,15.39
2023-02-19T12:59:51.683Z,15.27
2023-02-19T13:11:52.155Z,14.84
2023-02-19T13:23:52.605Z,14.62
2023-02-19T13:35:53.065Z,14.88
2023-02-19T13:47:53.490Z,14.84
2023-02-19T13:59:53.966Z,15.11
2023-02-19T14:11:54.436Z,14.68
2023-02-19T14:23:54.868Z,14.25
2023-02-19T14:35:55.372Z,14.06
2023-02-19T14:47:55.805Z,14.11
2023-02-19T14:59:56.241Z,13.69
2023-02-19T15:11:56.681Z,12.98
2023-02-19T15:23:57.151Z,12.87
2023-02-19T15:35:57.603Z,12.53
2023-02-19T15:47:58.100Z,11.84
2023-02-19T15:59:58.575Z,10.99
2023-02-19T16:11:58.984Z,10.83
2023-02-19T16:23:59.415Z,11.85
2023-02-19T16:35:59.876Z,11.82
2023-02-19T16:48:00.321Z,11.53
2023-02-19T17:00:00.789Z,11.18
2023-02-19T17:12:01.198Z,10.47
2023-02-19T17:24:01.700Z,9.29
2023-02-19T17:36:02.133Z,8.58
2023-02-19T17:48:02.596Z,8.70
2023-02-19T18:00:03.017Z,8.42
2023-02-19T18:12:03.540Z,7.88
2023-02-19T18:24:03.979Z,9.14
2023-02-19T18:36:04.395Z,8.73
2023-02-19T18:48:04.900Z,8.94
2023-02-19T19:00:05.325Z,9.15
2023-02-19T19:12:05.746Z,8.54
2023-02-19T19:24:06.226Z,7.95
2023-02-19T19:36:06.714Z,7.78
2023-02-19T19:48:07.155Z,7.36
2023-02-19T20:00:07.576Z,7.01
2023-02-19T20:12:08.007Z,6.55
2023-02-19T20:24:08.470Z,6.33
2023-02-19T20:36:08.965Z,6.20
2023-02-19T20:48:09.693Z,6.07
2023-02-19T21:00:09.836Z,6.20
2023-02-19T21:12:10.307Z,6.48
2023-02-19T21:24:10.782Z,6.76
2023-02-19T21:36:11.530Z,6.12
2023-02-19T21:48:11.707Z,6.06
2023-02-19T22:00:12.095Z,6.46
2023-02-19T22:12:12.569Z,6.11
2023-02-19T22:24:13.016Z,6.12
2023-02-19T22:36:13.619Z,6.15
2023-02-19T22:48:19.227Z,6.57
2023-02-19T23:00:14.419Z,6.84
2023-02-19T23:12:14.841Z,6.73
2023-02-19T23:24:15.282Z,6.80
2023-02-19T23:36:15.692Z,6.84
2023-02-19T23:48:16.161Z,6.73
